War Admiral — WDB7881 — position and weather

sailwx.info

Track history (hours):
 
Tides and Currents Weather Stations Pressure Air Temp Water Temp Dewpoint Dewpoint Depression Visibility Wind Speed Wind Dir Waves Ship Positions

War Admiral

More information available from US FCC via Universal Licensing System and Coast Guard Vessel Documentation Center.

Last reported at 2014-Sep-30 21:27 UTC. Time now 2014-Sep-30 22:08 UTC.
Position N 34°24' W 120°08'.

Length 66 m; draft 3.7 m.

Type: Cargo ship. MMSI: 368164000.

Date/timePositionNaut miles runAvg speedWind from/ knotsBaromVisibWave heightAir tempDewpointWater temp
2014-Sep-30 21:27N 34°24' W 120°08'2 2.3
2014-Sep-30 20:27N 34°23' W 120°10'6 4.2
2014-Sep-30 19:07N 34°21' W 120°17'8 2.9
2014-Sep-30 16:18N 34°23' W 120°07'1 0.4
2014-Sep-30 14:05N 34°24' W 120°07'3 2.1
2014-Sep-30 12:33N 34°23' W 120°10'2 1.1
2014-Sep-30 10:31N 34°23' W 120°08'3 3.3
2014-Sep-30 09:30N 34°23' W 120°12'2 2.6
2014-Sep-30 08:33N 34°23' W 120°09'1 1.2
2014-Sep-30 07:26N 34°23' W 120°10'2 2.1
2014-Sep-30 06:20N 34°23' W 120°07'5 3.0
2014-Sep-30 04:31N 34°21' W 120°01'1211.9
2014-Sep-30 03:31N 34°18' W 119°47'1111.2
2014-Sep-30 02:33N 34°14' W 119°35'3 0.1
2014-Sep-28 21:11N 34°13' W 119°31'812.3
2014-Sep-28 20:33N 34°14' W 119°41'1212.2
2014-Sep-28 19:34N 34°17' W 119°55'14 3.3
2014-Sep-28 15:24N 34°23' W 120°10'3 2.3
2014-Sep-28 14:18N 34°24' W 120°08'4 1.7
2014-Sep-28 12:07N 34°22' W 120°04'711.7
2014-Sep-28 11:33N 34°19' W 119°57'1212.0
2014-Sep-28 10:33N 34°16' W 119°43'9 1.2
2014-Sep-28 03:17N 34°19' W 119°53'911.9
2014-Sep-28 02:33N 34°22' W 120°03'6 5.3
2014-Sep-28 01:23N 34°23' W 120°10'0 0.0
2014-Sep-28 00:33N 34°23' W 120°10'1 0.8
2014-Sep-27 23:15N 34°22' W 120°09'1 1.3
2014-Sep-27 22:30N 34°23' W 120°10'2 0.5
2014-Sep-27 18:17N 34°23' W 120°08'0 0.1
2014-Sep-27 14:31N 34°24' W 120°08'2 1.2
2014-Sep-27 12:23N 34°23' W 120°05'4 1.3
2014-Sep-27 09:10N 34°23' W 120°10'8 4.4
2014-Sep-27 07:26N 34°20' W 120°01'25 0.9
2014-Sep-26 02:23N 34°13' W 119°32'1012.1
2014-Sep-26 01:33N 34°16' W 119°43'1211.7
2014-Sep-26 00:33N 34°19' W 119°57'1111.0
2014-Sep-25 23:33N 34°23' W 120°10'2 2.2
2014-Sep-25 22:33N 34°24' W 120°08'1 0.6
2014-Sep-25 21:33N 34°24' W 120°07'0 0.1
2014-Sep-25 20:15N 34°24' W 120°07'1 0.9
2014-Sep-25 19:15N 34°24' W 120°06'4 0.5
2014-Sep-25 11:28N 34°23' W 120°10'0 0.1
2014-Sep-25 10:33N 34°23' W 120°10'7 1.4
2014-Sep-25 05:31N 34°20' W 120°02'1111.5
2014-Sep-25 04:33N 34°18' W 119°49'1311.4
2014-Sep-25 03:27N 34°14' W 119°34'1111.1
2014-Sep-25 02:30N 34°11' W 119°22'8 8.8
2014-Sep-25 01:32N 34°09' W 119°12'0 0.0
2014-Sep-24 20:33N 34°09' W 119°12'0 0.0
2014-Sep-24 19:25N 34°09' W 119°12'0 0.0
2014-Sep-23 22:24N 34°09' W 119°12'0 0.0
2014-Sep-23 20:33N 34°09' W 119°12'0 0.0
2014-Sep-23 02:28N 34°09' W 119°12'0 0.0
2014-Sep-23 01:16N 34°09' W 119°12'0 0.0
2014-Sep-22 23:32N 34°09' W 119°12'1611.6
2014-Sep-22 22:09N 34°13' W 119°31'712.3
2014-Sep-22 21:33N 34°15' W 119°39'1212.2
2014-Sep-22 20:33N 34°19' W 119°54'14 9.5
2014-Sep-22 19:04N 34°23' W 120°10'1 0.0
2014-Sep-22 00:27N 34°23' W 120°09'0 0.2
2014-Sep-21 23:06N 34°23' W 120°09'1 1.3
2014-Sep-21 22:20N 34°23' W 120°10'1 1.5
2014-Sep-21 21:28N 34°23' W 120°09'1 0.1
2014-Sep-21 15:13N 34°24' W 120°08'6 9.0
2014-Sep-21 14:33N 34°22' W 120°01'1211.6
2014-Sep-21 13:33N 34°18' W 119°48'15 1.2
2014-Sep-21 01:06N 34°13' W 119°30'611.5
2014-Sep-21 00:33N 34°15' W 119°38'1212.0
2014-Sep-20 23:33N 34°18' W 119°52'1111.4
2014-Sep-20 22:33N 34°21' W 120°05'4 4.4
2014-Sep-20 21:33N 34°23' W 120°10'  
Track history (hours):
 
Tides and Currents Weather Stations Pressure Air Temp Water Temp Dewpoint Dewpoint Depression Visibility Wind Speed Wind Dir Waves Ship Positions

War Admiral

More information available from US FCC via Universal Licensing System and Coast Guard Vessel Documentation Center.

Last reported at 2014-Sep-30 21:27 UTC. Time now 2014-Sep-30 22:08 UTC.
Position N 34°24' W 120°08'.

Length 66 m; draft 3.7 m.

Type: Cargo ship. MMSI: 368164000.

Date/timePositionNaut miles runAvg speedWind from/ knotsBaromVisibWave heightAir tempDewpointWater temp
2014-Sep-30 21:27N 34°24' W 120°08'2 2.3
2014-Sep-30 20:27N 34°23' W 120°10'6 4.2
2014-Sep-30 19:07N 34°21' W 120°17'8 2.9
2014-Sep-30 16:18N 34°23' W 120°07'1 0.4
2014-Sep-30 14:05N 34°24' W 120°07'3 2.1
2014-Sep-30 12:33N 34°23' W 120°10'2 1.1
2014-Sep-30 10:31N 34°23' W 120°08'3 3.3
2014-Sep-30 09:30N 34°23' W 120°12'2 2.6
2014-Sep-30 08:33N 34°23' W 120°09'1 1.2
2014-Sep-30 07:26N 34°23' W 120°10'2 2.1
2014-Sep-30 06:20N 34°23' W 120°07'5 3.0
2014-Sep-30 04:31N 34°21' W 120°01'1211.9
2014-Sep-30 03:31N 34°18' W 119°47'1111.2
2014-Sep-30 02:33N 34°14' W 119°35'3 0.1
2014-Sep-28 21:11N 34°13' W 119°31'812.3
2014-Sep-28 20:33N 34°14' W 119°41'1212.2
2014-Sep-28 19:34N 34°17' W 119°55'14 3.3
2014-Sep-28 15:24N 34°23' W 120°10'3 2.3
2014-Sep-28 14:18N 34°24' W 120°08'4 1.7
2014-Sep-28 12:07N 34°22' W 120°04'711.7
2014-Sep-28 11:33N 34°19' W 119°57'1212.0
2014-Sep-28 10:33N 34°16' W 119°43'9 1.2
2014-Sep-28 03:17N 34°19' W 119°53'911.9
2014-Sep-28 02:33N 34°22' W 120°03'6 5.3
2014-Sep-28 01:23N 34°23' W 120°10'0 0.0
2014-Sep-28 00:33N 34°23' W 120°10'1 0.8
2014-Sep-27 23:15N 34°22' W 120°09'1 1.3
2014-Sep-27 22:30N 34°23' W 120°10'2 0.5
2014-Sep-27 18:17N 34°23' W 120°08'0 0.1
2014-Sep-27 14:31N 34°24' W 120°08'2 1.2
2014-Sep-27 12:23N 34°23' W 120°05'4 1.3
2014-Sep-27 09:10N 34°23' W 120°10'8 4.4
2014-Sep-27 07:26N 34°20' W 120°01'25 0.9
2014-Sep-26 02:23N 34°13' W 119°32'1012.1
2014-Sep-26 01:33N 34°16' W 119°43'1211.7
2014-Sep-26 00:33N 34°19' W 119°57'1111.0
2014-Sep-25 23:33N 34°23' W 120°10'2 2.2
2014-Sep-25 22:33N 34°24' W 120°08'1 0.6
2014-Sep-25 21:33N 34°24' W 120°07'0 0.1
2014-Sep-25 20:15N 34°24' W 120°07'1 0.9
2014-Sep-25 19:15N 34°24' W 120°06'4 0.5
2014-Sep-25 11:28N 34°23' W 120°10'0 0.1
2014-Sep-25 10:33N 34°23' W 120°10'7 1.4
2014-Sep-25 05:31N 34°20' W 120°02'1111.5
2014-Sep-25 04:33N 34°18' W 119°49'1311.4
2014-Sep-25 03:27N 34°14' W 119°34'1111.1
2014-Sep-25 02:30N 34°11' W 119°22'8 8.8
2014-Sep-25 01:32N 34°09' W 119°12'0 0.0
2014-Sep-24 20:33N 34°09' W 119°12'0 0.0
2014-Sep-24 19:25N 34°09' W 119°12'0 0.0
2014-Sep-23 22:24N 34°09' W 119°12'0 0.0
2014-Sep-23 20:33N 34°09' W 119°12'0 0.0
2014-Sep-23 02:28N 34°09' W 119°12'0 0.0
2014-Sep-23 01:16N 34°09' W 119°12'0 0.0
2014-Sep-22 23:32N 34°09' W 119°12'1611.6
2014-Sep-22 22:09N 34°13' W 119°31'712.3
2014-Sep-22 21:33N 34°15' W 119°39'1212.2
2014-Sep-22 20:33N 34°19' W 119°54'14 9.5
2014-Sep-22 19:04N 34°23' W 120°10'1 0.0
2014-Sep-22 00:27N 34°23' W 120°09'0 0.2
2014-Sep-21 23:06N 34°23' W 120°09'1 1.3
2014-Sep-21 22:20N 34°23' W 120°10'1 1.5
2014-Sep-21 21:28N 34°23' W 120°09'1 0.1
2014-Sep-21 15:13N 34°24' W 120°08'6 9.0
2014-Sep-21 14:33N 34°22' W 120°01'1211.6
2014-Sep-21 13:33N 34°18' W 119°48'15 1.2
2014-Sep-21 01:06N 34°13' W 119°30'611.5
2014-Sep-21 00:33N 34°15' W 119°38'1212.0
2014-Sep-20 23:33N 34°18' W 119°52'1111.4
2014-Sep-20 22:33N 34°21' W 120°05'4 4.4
2014-Sep-20 21:33N 34°23' W 120°10'  

Dump ship's entire track history